Address 0xe84cb8e785f0e6b37663f00ac0d76f14753b622f 6

 
Txn Hash Method
Block
From
To
Value [Txn Fee]
0xf30d65824e464620a440214028c282a011bbb3f8e5cb848cc2485b3aea598850Execute Meta Tra...195453492021-09-26 18:56:3424 secs ago0xe84cb8e785f0e6b37663f00ac0d76f14753b622fOUT 0x89aac1f5ccdd54dd8a09e5c858f19a665e4fa32b0 MATIC0.0214179
0x320a51a4ae7fa56a3b638a5d815aef9aeee9e2056723471ba17a8ace17e91c43Execute Meta Tra...195451532021-09-26 18:47:329 mins ago0xe84cb8e785f0e6b37663f00ac0d76f14753b622fOUT 0x89aac1f5ccdd54dd8a09e5c858f19a665e4fa32b0 MATIC0.00091869
0x1c04c5929247e7a9a8e720b601d5172befe663dffd8f3bb04ed8a97eb7fa738bExecute Meta Tra...195446822021-09-26 18:28:1628 mins ago0xe84cb8e785f0e6b37663f00ac0d76f14753b622fOUT 0x89aac1f5ccdd54dd8a09e5c858f19a665e4fa32b0 MATIC0.00214167
0x211acd4fce7d7061abea591ee5d3c56f2ca080ff75e865249f28edb47f2fe425Execute Meta Tra...195440822021-09-26 18:05:3251 mins ago0xe84cb8e785f0e6b37663f00ac0d76f14753b622fOUT 0x89aac1f5ccdd54dd8a09e5c858f19a665e4fa32b0 MATIC0.00214167
0x2bc2b838d03a6ab22ade4f014eb6a476129c108f48763c3d9c36cb7129c1da71Execute Meta Tra...195437802021-09-26 17:55:081 hr 1 min ago0xe84cb8e785f0e6b37663f00ac0d76f14753b622fOUT 0x89aac1f5ccdd54dd8a09e5c858f19a665e4fa32b0 MATIC0.004925841
0xfb2bbd77822f94ab2d7dbf4455b46b041180d7395a775b5ba0897f9cf2aef062Execute Meta Tra...195435202021-09-26 17:44:041 hr 12 mins ago0xe84cb8e785f0e6b37663f00ac0d76f14753b622fOUT 0x89aac1f5ccdd54dd8a09e5c858f19a665e4fa32b0 MATIC0.0214155
0x99723ea6d5b27791bb2364c30da63ddd83c2a014364dc3ec9f22472db33d9680Execute Meta Tra...195432182021-09-26 17:33:391 hr 23 mins ago0xe84cb8e785f0e6b37663f00ac0d76f14753b622fOUT 0x89aac1f5ccdd54dd8a09e5c858f19a665e4fa32b0 MATIC0.0214167
0xa95da17c04f6d6955646bb3c7f991af54b5df34c0b9e3b1a1448fc94c0283edcExecute Meta Tra...195426322021-09-26 17:11:231 hr 45 mins ago0xe84cb8e785f0e6b37663f00ac0d76f14753b622fOUT 0x89aac1f5ccdd54dd8a09e5c858f19a665e4fa32b0 MATIC0.0214179
0x1c298da106ab49e578b73fbdb0f4abb25473f4cf2a28d805b44c4edcc8b97383Execute Meta Tra...195423372021-09-26 17:01:171 hr 55 mins ago0xe84cb8e785f0e6b37663f00ac0d76f14753b622fOUT 0xbf79ce2fbd819e5abc2327563d02a200255b7cb30 MATIC0.001232025
0x8e2fbb4a59f10a31e5fc0e4bbbdd0afe236af4240fb98722a78e40c69efa5a740x41706c4e195420672021-09-26 16:51:112 hrs 5 mins ago0xe84cb8e785f0e6b37663f00ac0d76f14753b622fOUT 0x86c80a8aa58e0a4fa09a69624c31ab2a6cad56b80 MATIC0.006950021294
0x494e15f9d716b98dd3b77ae36f2cf3998acdcf957f622506e9129b95a2bc0178Execute Meta Tra...195415752021-09-26 16:32:102 hrs 24 mins ago0xe84cb8e785f0e6b37663f00ac0d76f14753b622fOUT 0x89aac1f5ccdd54dd8a09e5c858f19a665e4fa32b0 MATIC0.00214167
0xd230802b80d8119d0488bee551ed6e3ce3e5a0ff4e747c76db18ad5bdf55b494Execute Meta Tra...195412872021-09-26 16:21:262 hrs 35 mins ago0xe84cb8e785f0e6b37663f00ac0d76f14753b622fOUT 0x89aac1f5ccdd54dd8a09e5c858f19a665e4fa32b0 MATIC0.00642501
0xae181ec15e3c3226ade052f55f804dabf4f75ae677b0f49aa180053d9393ae37Execute Meta Tra...195410012021-09-26 16:10:182 hrs 46 mins ago0xe84cb8e785f0e6b37663f00ac0d76f14753b622fOUT 0x89aac1f5ccdd54dd8a09e5c858f19a665e4fa32b0 MATIC0.01070895
0x647e6d35f2a948f0f434c2029017016426bb4c962e3a10f4d7d7dea41a1084f5Execute Meta Tra...195404802021-09-26 15:50:063 hrs 6 mins ago0xe84cb8e785f0e6b37663f00ac0d76f14753b622fOUT 0x89aac1f5ccdd54dd8a09e5c858f19a665e4fa32b0 MATIC0.00091869
0x4a825bcebbfa8ff392a28f4d95e09889296a2a5a99b7d5d927582e2eafffcd94Execute Meta Tra...195402682021-09-26 15:42:403 hrs 14 mins ago0xe84cb8e785f0e6b37663f00ac0d76f14753b622fOUT 0x89aac1f5ccdd54dd8a09e5c858f19a665e4fa32b0 MATIC0.00214167
0x1e626446e7b0c3e8b907d401f45d6c65db08f70a243fb27f2e7a14e329140450Execute Meta Tra...195400142021-09-26 15:31:413 hrs 25 mins ago0xe84cb8e785f0e6b37663f00ac0d76f14753b622fOUT 0x89aac1f5ccdd54dd8a09e5c858f19a665e4fa32b0 MATIC0.016920141
0x5c78b36264b055b094dfd0d1098fc0b49b6b6a094772fd071304cf8ae331ff6bExecute Meta Tra...195393282021-09-26 15:03:413 hrs 53 mins ago0xe84cb8e785f0e6b37663f00ac0d76f14753b622fOUT 0x89aac1f5ccdd54dd8a09e5c858f19a665e4fa32b0 MATIC0.00642465
0xfc5645a12d2fee34a67941812688da4ab9222f15b840be2e084767a657fee936Execute Meta Tra...195385202021-09-26 14:35:514 hrs 21 mins ago0xe84cb8e785f0e6b37663f00ac0d76f14753b622fOUT 0x89aac1f5ccdd54dd8a09e5c858f19a665e4fa32b0 MATIC0.00214167
0xf6267f4a226cdc4068d6b08bb1e3db84e6872812bfe3f5cad0037477106484120x41706c4e195382802021-09-26 14:26:404 hrs 30 mins ago0xe84cb8e785f0e6b37663f00ac0d76f14753b622fOUT 0x86c80a8aa58e0a4fa09a69624c31ab2a6cad56b80 MATIC0.00558911
0x587417ff4a8f9592a388974a7d5f5acf689b536ac1fca56a2b0abbca41ef5fd8Execute Meta Tra...195381442021-09-26 14:20:584 hrs 36 mins ago0xe84cb8e785f0e6b37663f00ac0d76f14753b622fOUT 0x89aac1f5ccdd54dd8a09e5c858f19a665e4fa32b0 MATIC0.004711674
0x59701e50911ac563c2fda9a9d603d1d3f9d89793634f318aafb6ef92e978bcba0x41706c4e195380262021-09-26 14:14:244 hrs 42 mins ago0xe84cb8e785f0e6b37663f00ac0d76f14753b622fOUT 0x86c80a8aa58e0a4fa09a69624c31ab2a6cad56b80 MATIC0.00535841
0xbbc9309d099001c5b2cea49b470252a0995a7fb806355db8c2322dd48087246bExecute Meta Tra...195378702021-09-26 14:06:124 hrs 50 mins ago0xe84cb8e785f0e6b37663f00ac0d76f14753b622fOUT 0x89aac1f5ccdd54dd8a09e5c858f19a665e4fa32b0 MATIC0.009209181
0x66c519df9df6c095d1bbdc176b45b049e31d83a0dc1d0b2c38c2c35cdc75588dExecute Meta Tra...195376062021-09-26 13:57:084 hrs 59 mins ago0xe84cb8e785f0e6b37663f00ac0d76f14753b622fOUT 0x89aac1f5ccdd54dd8a09e5c858f19a665e4fa32b0 MATIC0.00214155
0x474194e1a3cd38f08bf791a8dae121faf0287c58586262b57007ea18b84bd96dExecute Meta Tra...195372952021-09-26 13:46:255 hrs 10 mins ago0xe84cb8e785f0e6b37663f00ac0d76f14753b622fOUT 0x89aac1f5ccdd54dd8a09e5c858f19a665e4fa32b0 MATIC0.00214167
0x5c95d16113d1f4a1ab610cc13626d4f3bcf256088865480a0c97671d6108b610Execute Meta Tra...195370232021-09-26 13:37:015 hrs 19 mins ago0xe84cb8e785f0e6b37663f00ac0d76f14753b622fOUT 0x89aac1f5ccdd54dd8a09e5c858f19a665e4fa32b0 MATIC0.00214143
[ Download CSV Export 
Parent Txn Hash Block From To Value
Loading

Contract Name:
0 MATIC

Compiler Version
0

Optimization Enabled:
0 MATIC

Other Settings:
-NA-
Block Transaction Gas Used Reward
Age Block Fee Address BC Fee Address Voting Power Jailed Incoming
Block Uncle Number Difficulty Gas Used Reward
Loading
Loading
Make sure to use the "Vote Down" button for any spammy posts, and the "Vote Up" for interesting conversations.